createdAt,value
2022-10-18T00:00:05.879Z,12.03
2022-10-18T00:02:35.105Z,16.50
2022-10-18T00:05:01.756Z,12.20
2022-10-18T00:07:28.523Z,11.40
2022-10-18T00:09:55.252Z,15.47
2022-10-18T00:12:21.857Z,13.47
2022-10-18T00:14:50.622Z,13.67
2022-10-18T00:17:17.783Z,14.20
2022-10-18T00:19:44.672Z,10.50
2022-10-18T00:22:11.236Z,10.70
2022-10-18T00:24:37.815Z,9.03
2022-10-18T00:27:04.447Z,12.87
2022-10-18T00:29:31.008Z,13.30
2022-10-18T00:31:57.640Z,12.10
2022-10-18T00:34:24.215Z,11.90
2022-10-18T00:36:50.901Z,13.87
2022-10-18T00:39:19.404Z,12.40
2022-10-18T00:41:46.323Z,15.47
2022-10-18T00:44:12.835Z,11.80
2022-10-18T00:46:45.089Z,11.97
2022-10-18T00:49:24.065Z,15.30
2022-10-18T00:52:00.238Z,13.17
2022-10-18T00:54:29.417Z,13.07
2022-10-18T00:56:56.453Z,13.40
2022-10-18T00:59:23.849Z,14.43
2022-10-18T01:01:50.492Z,14.20
2022-10-18T01:04:18.893Z,14.10
2022-10-18T01:09:50.649Z,19.97
2022-10-18T01:12:39.244Z,16.40
2022-10-18T01:15:48.362Z,15.07
2022-10-18T01:18:30.301Z,16.47
2022-10-18T01:21:22.461Z,15.30
2022-10-18T01:24:16.860Z,15.77
2022-10-18T01:27:18.062Z,14.07
2022-10-18T01:30:17.572Z,15.07
2022-10-18T01:32:58.828Z,18.47
2022-10-18T01:35:33.764Z,16.50
2022-10-18T01:38:05.141Z,15.37
2022-10-18T01:40:33.240Z,15.40
2022-10-18T01:43:01.580Z,16.80
2022-10-18T01:45:29.054Z,21.50
2022-10-18T01:47:56.293Z,19.93
2022-10-18T01:50:31.025Z,18.17
2022-10-18T01:52:58.573Z,16.90
2022-10-18T01:55:33.457Z,17.23
2022-10-18T01:58:16.149Z,17.80
2022-10-18T02:00:44.144Z,16.77
2022-10-18T02:03:23.930Z,16.47
2022-10-18T02:05:59.075Z,16.60
2022-10-18T02:09:02.717Z,19.07
2022-10-18T02:11:31.312Z,19.10
2022-10-18T02:14:04.094Z,18.77
2022-10-18T02:16:47.808Z,21.10
2022-10-18T02:19:17.033Z,19.87
2022-10-18T02:21:45.535Z,15.37
2022-10-18T02:24:14.399Z,17.73
2022-10-18T02:26:41.764Z,19.73
2022-10-18T02:29:08.960Z,16.73
2022-10-18T02:31:41.533Z,13.70
2022-10-18T02:34:22.604Z,14.03
2022-10-18T02:36:58.996Z,17.50
2022-10-18T02:39:29.497Z,13.23
2022-10-18T02:41:57.774Z,13.47
2022-10-18T02:44:24.445Z,17.20
2022-10-18T02:46:51.639Z,12.63
2022-10-18T02:49:18.206Z,13.90
2022-10-18T02:51:44.823Z,15.63
2022-10-18T02:54:11.401Z,12.37
2022-10-18T02:56:37.973Z,12.43
2022-10-18T02:59:07.163Z,12.60
2022-10-18T03:01:36.996Z,13.20
2022-10-18T03:04:04.757Z,11.77
2022-10-18T03:06:32.021Z,14.50
2022-10-18T03:08:58.782Z,13.23
2022-10-18T03:11:25.443Z,14.73
2022-10-18T03:13:52.029Z,14.07
2022-10-18T03:16:18.682Z,15.13
2022-10-18T03:18:45.327Z,13.03
2022-10-18T03:21:12.340Z,14.73
2022-10-18T03:23:39.913Z,14.70
2022-10-18T03:26:06.603Z,14.20
2022-10-18T03:28:33.209Z,13.67
2022-10-18T03:31:02.053Z,17.53
2022-10-18T03:33:29.000Z,17.37
2022-10-18T03:35:55.609Z,18.73
2022-10-18T03:38:22.377Z,15.93
2022-10-18T03:40:49.061Z,17.60
2022-10-18T03:43:16.017Z,14.67
2022-10-18T03:45:43.048Z,17.23
2022-10-18T03:48:09.654Z,16.00
2022-10-18T03:50:36.226Z,17.10
2022-10-18T03:53:02.873Z,15.30
2022-10-18T03:55:29.454Z,15.80
2022-10-18T03:57:56.059Z,15.90
2022-10-18T04:00:22.726Z,14.87
2022-10-18T04:02:52.109Z,13.50
2022-10-18T04:05:23.938Z,18.40
2022-10-18T04:07:50.736Z,16.33
2022-10-18T04:10:18.543Z,16.90
2022-10-18T04:12:45.126Z,13.10
2022-10-18T04:15:11.764Z,14.37
2022-10-18T04:17:38.458Z,19.13
2022-10-18T04:20:05.556Z,14.40
2022-10-18T04:22:32.115Z,17.67
2022-10-18T04:24:58.745Z,15.77
2022-10-18T04:27:26.365Z,15.53
2022-10-18T04:29:52.936Z,16.20
2022-10-18T04:32:19.501Z,15.10
2022-10-18T04:34:46.072Z,15.13
2022-10-18T04:37:12.696Z,17.40
2022-10-18T04:39:39.279Z,17.73
2022-10-18T04:42:05.956Z,20.30
2022-10-18T04:44:32.624Z,18.63
2022-10-18T04:46:59.174Z,23.50
2022-10-18T04:49:25.725Z,26.67
2022-10-18T04:51:52.328Z,28.87
2022-10-18T04:54:18.887Z,25.83
2022-10-18T04:56:45.493Z,29.70
2022-10-18T04:59:12.057Z,28.03
2022-10-18T05:01:38.676Z,24.63
2022-10-18T05:04:05.382Z,27.00
2022-10-18T05:06:35.905Z,25.00
2022-10-18T05:09:02.586Z,26.53
2022-10-18T05:11:29.171Z,22.80
2022-10-18T05:13:55.857Z,24.63
2022-10-18T05:16:22.541Z,24.50
2022-10-18T05:18:49.179Z,20.67
2022-10-18T05:21:16.311Z,23.87
2022-10-18T05:23:42.901Z,19.97
2022-10-18T05:26:09.696Z,21.07
2022-10-18T05:28:40.363Z,23.40
2022-10-18T05:31:09.569Z,22.53
2022-10-18T05:33:36.398Z,22.10
2022-10-18T05:36:03.711Z,20.83
2022-10-18T05:38:31.022Z,23.40
2022-10-18T05:40:59.091Z,25.07
2022-10-18T05:43:29.482Z,21.10
2022-10-18T05:45:56.358Z,21.47
2022-10-18T05:48:23.041Z,22.30
2022-10-18T05:50:49.623Z,23.93
2022-10-18T05:53:35.641Z,24.47
2022-10-18T05:56:03.866Z,27.43
2022-10-18T05:58:30.480Z,23.57
2022-10-18T06:01:01.745Z,21.07
2022-10-18T06:03:30.177Z,21.20
2022-10-18T06:06:08.371Z,25.47
2022-10-18T06:08:36.207Z,24.87
2022-10-18T06:11:07.950Z,27.03
2022-10-18T06:13:34.609Z,24.37
2022-10-18T06:16:01.177Z,26.00
2022-10-18T06:18:27.903Z,21.47
2022-10-18T06:20:59.140Z,23.37
2022-10-18T06:23:27.445Z,25.40
2022-10-18T06:25:57.708Z,26.33
2022-10-18T06:28:24.349Z,20.90
2022-10-18T06:30:50.907Z,21.20
2022-10-18T06:33:17.510Z,25.30
2022-10-18T06:35:44.089Z,27.10
2022-10-18T06:38:10.671Z,25.47
2022-10-18T06:40:38.000Z,23.20
2022-10-18T06:43:20.053Z,24.90
2022-10-18T06:45:47.912Z,21.73
2022-10-18T06:48:14.550Z,22.23
2022-10-18T06:50:41.200Z,25.40
2022-10-18T06:53:08.930Z,21.40
2022-10-18T06:55:35.873Z,22.33
2022-10-18T06:58:02.663Z,22.97
2022-10-18T07:00:29.396Z,26.27
2022-10-18T07:02:57.947Z,22.27
2022-10-18T07:05:24.583Z,31.07
2022-10-18T07:07:54.247Z,27.90
2022-10-18T07:10:23.811Z,30.93
2022-10-18T07:12:53.502Z,31.60
2022-10-18T07:15:23.990Z,30.00
2022-10-18T07:17:50.666Z,34.37
2022-10-18T07:20:17.559Z,26.30
2022-10-18T07:22:44.137Z,30.60
2022-10-18T07:25:10.784Z,27.17
2022-10-18T07:27:38.347Z,29.50
2022-10-18T07:30:07.299Z,28.17
2022-10-18T07:32:34.027Z,27.20
2022-10-18T07:35:01.171Z,14.70
2022-10-18T07:37:30.194Z,25.10
2022-10-18T07:39:56.951Z,26.63
2022-10-18T07:42:23.650Z,27.50
2022-10-18T07:44:50.479Z,30.53
2022-10-18T07:47:17.171Z,20.77
2022-10-18T07:49:43.741Z,30.50
2022-10-18T07:52:11.358Z,28.23
2022-10-18T07:54:37.991Z,27.57
2022-10-18T07:57:04.975Z,24.00
2022-10-18T07:59:31.884Z,27.23
2022-10-18T08:01:58.666Z,23.70
2022-10-18T08:04:25.329Z,25.97
2022-10-18T08:06:51.938Z,26.37
2022-10-18T08:09:18.533Z,26.67
2022-10-18T08:11:45.105Z,29.60
2022-10-18T08:14:11.665Z,28.77
2022-10-18T08:16:38.299Z,28.87
2022-10-18T08:19:04.996Z,32.17
2022-10-18T08:21:31.850Z,28.53
2022-10-18T08:23:58.440Z,34.27
2022-10-18T08:26:25.009Z,54.10
2022-10-18T08:29:10.335Z,49.63
2022-10-18T08:31:38.392Z,55.13
2022-10-18T08:34:04.980Z,60.10
2022-10-18T08:36:32.050Z,67.00
2022-10-18T08:38:58.694Z,64.00
2022-10-18T08:41:37.485Z,55.63
2022-10-18T08:44:19.514Z,73.13
2022-10-18T08:47:07.192Z,60.60
2022-10-18T08:49:59.826Z,67.17
2022-10-18T08:52:48.403Z,59.60
2022-10-18T08:55:48.361Z,68.47
2022-10-18T08:58:21.980Z,65.57
2022-10-18T09:00:58.632Z,64.23
2022-10-18T09:03:52.925Z,71.23
2022-10-18T09:06:31.069Z,68.70
2022-10-18T09:09:28.095Z,73.00
2022-10-18T09:12:30.883Z,71.87
2022-10-18T09:15:33.440Z,79.43
2022-10-18T09:18:33.532Z,70.83
2022-10-18T09:21:07.472Z,92.77
2022-10-18T09:23:49.247Z,89.17
2022-10-18T09:26:37.832Z,76.63
2022-10-18T09:29:12.877Z,91.93
2022-10-18T09:31:42.620Z,83.97
2022-10-18T09:34:26.178Z,83.17
2022-10-18T09:36:53.411Z,84.00
2022-10-18T09:39:25.119Z,84.20
2022-10-18T09:42:11.547Z,86.23
2022-10-18T09:44:51.024Z,78.70
2022-10-18T09:50:14.892Z,71.33
2022-10-18T09:52:49.680Z,79.30
2022-10-18T09:55:24.058Z,84.30
2022-10-18T09:57:55.277Z,72.57
2022-10-18T10:00:29.506Z,78.50
2022-10-18T10:02:56.280Z,80.23
2022-10-18T10:05:22.841Z,71.90
2022-10-18T10:07:49.645Z,66.40
2022-10-18T10:10:30.449Z,74.83
2022-10-18T10:13:06.687Z,72.00
2022-10-18T10:15:38.208Z,71.77
2022-10-18T10:18:26.288Z,79.50
2022-10-18T10:20:58.399Z,70.23
2022-10-18T10:23:35.917Z,60.43
2022-10-18T10:26:20.198Z,62.87
2022-10-18T10:28:48.709Z,58.73
2022-10-18T10:31:36.618Z,60.20
2022-10-18T10:34:19.943Z,62.80
2022-10-18T10:36:49.365Z,60.67
2022-10-18T10:39:19.252Z,53.97
2022-10-18T10:41:55.551Z,61.73
2022-10-18T10:44:31.630Z,52.80
2022-10-18T10:46:59.229Z,49.97
2022-10-18T10:49:40.293Z,51.20
2022-10-18T10:52:26.245Z,42.53
2022-10-18T10:55:05.808Z,41.27
2022-10-18T10:57:38.655Z,43.80
2022-10-18T11:00:05.653Z,53.37
2022-10-18T11:02:34.501Z,46.97
2022-10-18T11:05:23.113Z,47.23
2022-10-18T11:07:54.834Z,45.00
2022-10-18T11:10:28.590Z,40.20
2022-10-18T11:13:23.579Z,38.87
2022-10-18T11:15:59.211Z,35.63
2022-10-18T11:18:30.486Z,34.47
2022-10-18T11:21:07.940Z,37.90
2022-10-18T11:23:36.732Z,38.47
2022-10-18T11:26:13.031Z,40.23
2022-10-18T11:29:12.932Z,44.10
2022-10-18T11:31:57.680Z,38.77
2022-10-18T11:34:27.077Z,39.30
2022-10-18T11:37:22.921Z,41.37
2022-10-18T11:40:24.130Z,41.90
2022-10-18T11:43:00.708Z,51.73
2022-10-18T11:45:43.352Z,44.17
2022-10-18T11:48:46.837Z,49.17
2022-10-18T11:51:34.279Z,41.73
2022-10-18T11:57:31.455Z,32.60
2022-10-18T12:00:16.861Z,33.93
2022-10-18T12:02:54.055Z,33.00
2022-10-18T12:05:24.327Z,37.13
2022-10-18T12:08:21.355Z,36.90
2022-10-18T12:11:04.617Z,30.20
2022-10-18T12:13:48.985Z,32.40
2022-10-18T12:16:17.958Z,35.10
2022-10-18T12:18:53.880Z,38.00
2022-10-18T12:21:25.718Z,42.40
2022-10-18T12:24:10.917Z,35.47
2022-10-18T12:26:38.236Z,40.43
2022-10-18T12:29:20.284Z,30.60
2022-10-18T12:31:53.257Z,35.07
2022-10-18T12:34:22.604Z,35.50
2022-10-18T12:37:20.677Z,35.40
2022-10-18T12:40:11.498Z,46.10
2022-10-18T12:42:46.843Z,35.40
2022-10-18T12:45:13.473Z,29.07
2022-10-18T12:47:40.539Z,33.10
2022-10-18T12:50:24.299Z,35.10
2022-10-18T12:53:05.301Z,35.90
2022-10-18T12:55:37.788Z,36.40
2022-10-18T12:58:21.860Z,42.57
2022-10-18T13:00:48.852Z,37.20
2022-10-18T13:03:17.143Z,33.37
2022-10-18T13:05:53.938Z,39.70
2022-10-18T13:08:27.614Z,40.43
2022-10-18T13:11:09.293Z,40.53
2022-10-18T13:14:07.956Z,40.67
2022-10-18T13:16:46.440Z,37.77
2022-10-18T13:19:45.352Z,38.90
2022-10-18T13:22:35.242Z,39.20
2022-10-18T13:25:03.975Z,40.77
2022-10-18T13:27:40.998Z,39.23
2022-10-18T13:30:29.074Z,41.20
2022-10-18T13:33:24.923Z,45.40
2022-10-18T13:35:52.064Z,43.93
2022-10-18T13:38:37.235Z,48.53
2022-10-18T13:41:14.200Z,47.40
2022-10-18T13:43:53.178Z,51.50
2022-10-18T13:46:34.857Z,52.03
2022-10-18T13:49:38.233Z,57.10
2022-10-18T13:52:36.104Z,67.00
2022-10-18T13:55:26.784Z,64.50
2022-10-18T13:58:04.764Z,64.03
2022-10-18T14:00:49.198Z,59.77
2022-10-18T14:03:56.846Z,56.80
2022-10-18T14:06:33.357Z,54.03
2022-10-18T14:09:13.857Z,47.33
2022-10-18T14:12:02.869Z,45.37
2022-10-18T14:15:02.298Z,54.80
2022-10-18T14:18:06.156Z,48.03
2022-10-18T14:20:55.246Z,51.80
2022-10-18T14:23:36.392Z,44.90
2022-10-18T14:26:13.560Z,42.80
2022-10-18T14:28:58.747Z,44.70
2022-10-18T14:31:26.540Z,46.60
2022-10-18T14:33:57.912Z,40.97
2022-10-18T14:36:30.523Z,40.00
2022-10-18T14:39:03.444Z,37.53
2022-10-18T14:41:38.361Z,40.33
2022-10-18T14:44:25.399Z,35.37
2022-10-18T14:47:12.008Z,35.60
2022-10-18T14:49:45.753Z,37.40
2022-10-18T14:52:25.357Z,34.53
2022-10-18T14:54:55.929Z,31.07
2022-10-18T14:57:29.290Z,30.23
2022-10-18T15:00:03.205Z,33.13
2022-10-18T15:02:33.041Z,31.33
2022-10-18T15:05:10.160Z,35.23
2022-10-18T15:07:37.231Z,26.93
2022-10-18T15:10:05.340Z,29.63
2022-10-18T15:12:41.090Z,25.70
2022-10-18T15:15:27.139Z,22.57
2022-10-18T15:17:54.681Z,27.93
2022-10-18T15:20:28.254Z,20.20
2022-10-18T15:23:14.913Z,22.17
2022-10-18T15:25:41.525Z,22.50
2022-10-18T15:28:27.401Z,23.03
2022-10-18T15:30:54.345Z,24.93
2022-10-18T15:33:23.816Z,22.50
2022-10-18T15:35:53.557Z,25.03
2022-10-18T15:38:31.752Z,27.27
2022-10-18T15:40:58.861Z,22.70
2022-10-18T15:43:25.567Z,23.07
2022-10-18T15:45:58.823Z,19.90
2022-10-18T15:48:34.283Z,20.13
2022-10-18T15:51:06.844Z,23.07
2022-10-18T15:53:44.156Z,27.63
2022-10-18T15:56:27.694Z,18.00
2022-10-18T15:58:58.781Z,20.33
2022-10-18T16:01:44.491Z,23.10
2022-10-18T16:04:25.043Z,24.97
2022-10-18T16:06:52.387Z,22.03
2022-10-18T16:09:20.653Z,22.60
2022-10-18T16:11:54.270Z,21.33
2022-10-18T16:14:24.468Z,21.47
2022-10-18T16:17:00.310Z,24.20
2022-10-18T16:19:27.152Z,25.83
2022-10-18T16:21:54.393Z,21.40
2022-10-18T16:24:21.659Z,23.60
2022-10-18T16:26:48.551Z,24.93
2022-10-18T16:29:19.265Z,21.90
2022-10-18T16:31:46.660Z,28.93
2022-10-18T16:34:14.694Z,28.13
2022-10-18T16:36:41.536Z,21.63
2022-10-18T16:39:14.563Z,20.13
2022-10-18T16:41:41.210Z,26.27
2022-10-18T16:44:07.832Z,28.80
2022-10-18T16:46:35.166Z,16.27
2022-10-18T16:49:02.332Z,16.00
2022-10-18T16:51:29.213Z,16.60
2022-10-18T16:53:55.995Z,18.97
2022-10-18T16:56:28.047Z,18.17
2022-10-18T16:58:55.061Z,22.07
2022-10-18T17:01:23.528Z,22.83
2022-10-18T17:03:53.750Z,25.43
2022-10-18T17:06:25.880Z,24.43
2022-10-18T17:08:53.648Z,22.00
2022-10-18T17:11:22.131Z,29.20
2022-10-18T17:13:48.872Z,21.17
2022-10-18T17:16:21.508Z,19.40
2022-10-18T17:18:48.146Z,22.17
2022-10-18T17:21:14.780Z,19.53
2022-10-18T17:23:41.379Z,21.47
2022-10-18T17:26:27.906Z,22.03
2022-10-18T17:29:04.235Z,20.80
2022-10-18T17:31:31.944Z,17.30
2022-10-18T17:34:01.328Z,24.40
2022-10-18T17:36:28.304Z,17.67
2022-10-18T17:38:55.407Z,17.90
2022-10-18T17:41:22.388Z,28.20
2022-10-18T17:43:49.462Z,17.50
2022-10-18T17:46:17.612Z,22.50
2022-10-18T17:48:44.349Z,22.50
2022-10-18T17:51:13.495Z,22.00
2022-10-18T17:53:40.263Z,21.80
2022-10-18T17:56:07.797Z,18.93
2022-10-18T17:58:34.910Z,23.97
2022-10-18T18:01:11.374Z,25.10
2022-10-18T18:03:38.103Z,23.43
2022-10-18T18:06:15.206Z,22.10
2022-10-18T18:08:41.788Z,28.03
2022-10-18T18:11:08.424Z,19.97
2022-10-18T18:13:35.075Z,23.17
2022-10-18T18:16:18.525Z,26.37
2022-10-18T18:18:46.047Z,23.07
2022-10-18T18:21:13.406Z,19.53
2022-10-18T18:23:40.463Z,20.43
2022-10-18T18:26:07.257Z,23.17
2022-10-18T18:28:34.797Z,22.60
2022-10-18T18:31:13.333Z,26.03
2022-10-18T18:33:40.456Z,18.50
2022-10-18T18:36:07.624Z,18.93
2022-10-18T18:38:36.656Z,20.27
2022-10-18T18:41:09.218Z,17.30
2022-10-18T18:43:36.871Z,17.90
2022-10-18T18:46:04.039Z,23.03
2022-10-18T18:48:33.076Z,19.77
2022-10-18T18:51:00.177Z,23.03
2022-10-18T18:53:29.550Z,16.60
2022-10-18T18:56:07.583Z,19.30
2022-10-18T18:58:35.801Z,20.57
2022-10-18T19:01:12.375Z,19.20
2022-10-18T19:03:40.223Z,22.20
2022-10-18T19:06:09.689Z,22.00
2022-10-18T19:08:38.632Z,15.63
2022-10-18T19:11:09.094Z,17.70
2022-10-18T19:13:36.402Z,19.87
2022-10-18T19:16:24.755Z,23.70
2022-10-18T19:18:52.279Z,20.90
2022-10-18T19:21:19.501Z,18.37
2022-10-18T19:23:46.108Z,14.30
2022-10-18T19:26:37.731Z,19.90
2022-10-18T19:29:11.092Z,18.20
2022-10-18T19:31:38.942Z,15.10
2022-10-18T19:34:07.908Z,15.67
2022-10-18T19:36:35.637Z,17.60
2022-10-18T19:39:03.035Z,13.23
2022-10-18T19:41:29.680Z,16.47
2022-10-18T19:43:56.644Z,15.47
2022-10-18T19:46:24.141Z,13.00
2022-10-18T19:48:51.156Z,14.70
2022-10-18T19:51:21.021Z,19.50
2022-10-18T19:53:49.931Z,8.93
2022-10-18T19:56:19.631Z,14.47
2022-10-18T19:58:47.071Z,15.67
2022-10-18T20:01:14.508Z,12.90
2022-10-18T20:03:41.207Z,9.23
2022-10-18T20:06:07.880Z,12.00
2022-10-18T20:08:35.593Z,11.37
2022-10-18T20:11:08.784Z,10.47
2022-10-18T20:13:35.969Z,12.43
2022-10-18T20:16:04.199Z,10.70
2022-10-18T20:18:30.900Z,15.77
2022-10-18T20:20:57.469Z,11.43
2022-10-18T20:23:24.351Z,14.97
2022-10-18T20:26:01.908Z,9.27
2022-10-18T20:28:29.622Z,10.83
2022-10-18T20:31:01.317Z,12.70
2022-10-18T20:33:28.212Z,13.00
2022-10-18T20:35:55.018Z,13.07
2022-10-18T20:38:22.029Z,12.33
2022-10-18T20:40:48.642Z,13.30
2022-10-18T20:43:15.225Z,10.87
2022-10-18T20:45:41.778Z,10.13
2022-10-18T20:48:08.673Z,14.17
2022-10-18T20:50:39.576Z,13.47
2022-10-18T20:53:06.146Z,11.97
2022-10-18T20:55:32.708Z,14.93
2022-10-18T20:57:59.285Z,16.67
2022-10-18T21:00:25.844Z,12.60
2022-10-18T21:02:52.429Z,14.40
2022-10-18T21:05:18.985Z,11.67
2022-10-18T21:07:45.551Z,10.83
2022-10-18T21:10:12.103Z,15.00
2022-10-18T21:12:38.814Z,14.13
2022-10-18T21:15:06.548Z,13.63
2022-10-18T21:17:33.119Z,11.00
2022-10-18T21:20:00.884Z,11.13
2022-10-18T21:22:27.707Z,11.90
2022-10-18T21:24:54.267Z,21.30
2022-10-18T21:27:21.118Z,15.43
2022-10-18T21:29:48.984Z,17.33
2022-10-18T21:32:16.480Z,16.73
2022-10-18T21:34:43.159Z,14.13
2022-10-18T21:37:09.718Z,14.20
2022-10-18T21:39:36.294Z,16.13
2022-10-18T21:42:02.862Z,20.13
2022-10-18T21:44:29.438Z,17.60
2022-10-18T21:46:56.818Z,15.67
2022-10-18T21:49:24.868Z,18.60
2022-10-18T21:51:51.661Z,18.67
2022-10-18T21:54:18.277Z,17.80
2022-10-18T21:56:45.389Z,15.00
2022-10-18T21:59:12.755Z,17.73
2022-10-18T22:01:39.889Z,12.57
2022-10-18T22:04:16.537Z,19.53
2022-10-18T22:06:43.088Z,11.63
2022-10-18T22:09:09.929Z,9.60
2022-10-18T22:11:40.081Z,12.87
2022-10-18T22:14:06.718Z,9.63
2022-10-18T22:16:33.271Z,13.50
2022-10-18T22:19:02.363Z,14.97
2022-10-18T22:21:29.746Z,13.10
2022-10-18T22:23:57.845Z,13.80
2022-10-18T22:26:30.662Z,17.00
2022-10-18T22:29:00.312Z,11.43
2022-10-18T22:31:29.558Z,14.10
2022-10-18T22:34:01.192Z,10.43
2022-10-18T22:36:28.148Z,12.87
2022-10-18T22:38:55.222Z,11.10
2022-10-18T22:41:22.279Z,12.73
2022-10-18T22:43:50.583Z,10.20
2022-10-18T22:46:17.327Z,12.20
2022-10-18T22:48:44.527Z,9.80
2022-10-18T22:51:11.799Z,16.43
2022-10-18T22:53:39.417Z,12.63
2022-10-18T22:56:07.601Z,16.40
2022-10-18T22:58:34.512Z,10.93
2022-10-18T23:01:09.851Z,12.83
2022-10-18T23:03:37.426Z,11.03
2022-10-18T23:06:04.660Z,11.93
2022-10-18T23:08:31.933Z,13.00
2022-10-18T23:10:59.844Z,17.47
2022-10-18T23:13:27.613Z,12.33
2022-10-18T23:16:04.325Z,7.90
2022-10-18T23:18:32.920Z,12.80
2022-10-18T23:21:07.781Z,9.63
2022-10-18T23:23:36.351Z,9.77
2022-10-18T23:26:08.812Z,9.07
2022-10-18T23:28:37.757Z,15.30
2022-10-18T23:31:19.417Z,10.80
2022-10-18T23:33:48.541Z,11.30
2022-10-18T23:36:16.303Z,10.20
2022-10-18T23:38:43.415Z,12.07
2022-10-18T23:41:12.309Z,12.27
2022-10-18T23:43:39.969Z,18.13
2022-10-18T23:46:07.122Z,16.50
2022-10-18T23:48:34.231Z,10.67
2022-10-18T23:51:01.714Z,7.53
2022-10-18T23:53:28.572Z,12.57
2022-10-18T23:55:57.003Z,8.47
2022-10-18T23:58:24.264Z,14.23
